createdAt,value
2022-09-29T00:02:02.249Z,92.57
2022-09-29T00:07:12.864Z,93.10
2022-09-29T00:12:48.826Z,92.67
2022-09-29T00:15:18.174Z,92.17
2022-09-29T00:18:12.822Z,93.34
2022-09-29T00:20:51.295Z,92.90
2022-09-29T00:27:53.552Z,93.64
2022-09-29T00:30:26.041Z,93.98
2022-09-29T00:32:55.332Z,93.63
2022-09-29T00:35:29.375Z,93.46
2022-09-29T00:37:59.689Z,94.39
2022-09-29T00:46:47.591Z,94.87
2022-09-29T00:49:32.247Z,93.11
2022-09-29T00:52:18.321Z,92.75
2022-09-29T00:59:08.274Z,93.39
2022-09-29T01:01:37.616Z,93.91
2022-09-29T01:04:16.280Z,94.25
2022-09-29T01:06:49.071Z,94.39
2022-09-29T01:09:25.818Z,93.79
2022-09-29T01:11:59.285Z,94.71
2022-09-29T01:14:33.746Z,93.40
2022-09-29T01:17:04.148Z,93.76
2022-09-29T01:20:00.729Z,94.55
2022-09-29T01:22:55.478Z,93.76
2022-09-29T01:26:01.474Z,93.65
2022-09-29T01:28:40.646Z,92.65
2022-09-29T01:31:38.661Z,92.74
2022-09-29T01:34:21.843Z,92.49
2022-09-29T01:37:26.960Z,93.24
2022-09-29T01:40:33.203Z,93.34
2022-09-29T01:43:14.170Z,93.84
2022-09-29T01:46:06.537Z,94.12
2022-09-29T01:48:44.374Z,94.18
2022-09-29T01:51:25.592Z,93.91
2022-09-29T01:53:59.885Z,93.83
2022-09-29T01:56:43.420Z,94.77
2022-09-29T02:03:04.951Z,94.90
2022-09-29T02:06:16.497Z,94.79
2022-09-29T02:08:59.731Z,94.83
2022-09-29T02:11:56.644Z,94.93
2022-09-29T02:14:51.873Z,94.69
2022-09-29T02:17:50.369Z,95.13
2022-09-29T02:23:08.143Z,96.10
2022-09-29T02:25:43.290Z,95.75
2022-09-29T02:28:12.705Z,94.87
2022-09-29T02:30:43.186Z,94.65
2022-09-29T02:33:27.691Z,94.72
2022-09-29T02:36:30.110Z,94.24
2022-09-29T02:39:07.431Z,94.37
2022-09-29T02:42:05.981Z,95.10
2022-09-29T02:45:12.457Z,95.71
2022-09-29T02:48:21.490Z,95.65
2022-09-29T02:51:29.591Z,95.83
2022-09-29T02:54:13.289Z,94.59
2022-09-29T02:57:10.951Z,95.10
2022-09-29T03:00:11.624Z,95.48
2022-09-29T03:02:43.206Z,95.49
2022-09-29T03:05:15.822Z,95.98
2022-09-29T03:07:45.966Z,95.04
2022-09-29T03:10:24.864Z,93.47
2022-09-29T03:13:01.646Z,94.36
2022-09-29T03:15:30.162Z,94.61
2022-09-29T03:25:54.381Z,94.51
2022-09-29T03:34:13.537Z,95.11
2022-09-29T03:36:45.474Z,95.17
2022-09-29T03:39:55.946Z,96.08
2022-09-29T03:52:10.196Z,96.63
2022-09-29T03:54:38.294Z,97.20
2022-09-29T03:57:07.210Z,97.31
2022-09-29T03:59:43.249Z,98.02
2022-09-29T04:02:19.293Z,97.60
2022-09-29T04:04:49.141Z,96.55
2022-09-29T04:07:22.906Z,97.69
2022-09-29T04:09:51.269Z,98.19
2022-09-29T04:12:24.192Z,98.64
2022-09-29T04:14:53.283Z,99.23
2022-09-29T04:17:24.003Z,97.92
2022-09-29T04:19:52.443Z,97.56
2022-09-29T04:22:35.315Z,98.30
2022-09-29T04:29:19.857Z,99.95
2022-09-29T04:31:49.237Z,99.57
2022-09-29T04:34:19.279Z,99.28
2022-09-29T04:36:46.703Z,99.29
2022-09-29T04:39:14.069Z,99.31
2022-09-29T04:41:41.618Z,99.73
2022-09-29T04:44:12.167Z,98.98
2022-09-29T04:46:39.785Z,99.21
2022-09-29T04:49:07.162Z,99.48
2022-09-29T04:51:34.863Z,97.12
2022-09-29T04:54:02.231Z,97.77
2022-09-29T04:56:31.535Z,97.50
2022-09-29T04:58:59.339Z,98.45
2022-09-29T05:01:27.162Z,99.92
2022-09-29T05:03:54.455Z,99.92
2022-09-29T05:06:22.445Z,100.00
2022-09-29T05:08:49.713Z,100.00
2022-09-29T05:11:16.998Z,100.00
2022-09-29T05:13:44.181Z,98.14
2022-09-29T05:16:19.409Z,98.17
2022-09-29T05:18:46.787Z,99.18
2022-09-29T05:21:29.671Z,100.00
2022-09-29T05:23:57.338Z,100.00
2022-09-29T05:26:24.768Z,100.00
2022-09-29T05:28:52.145Z,100.00
2022-09-29T05:31:19.638Z,100.00
2022-09-29T05:33:46.964Z,100.00
2022-09-29T05:36:14.541Z,100.00
2022-09-29T05:38:41.738Z,98.92
2022-09-29T05:41:12.388Z,97.97
2022-09-29T05:43:40.308Z,96.76
2022-09-29T05:46:10.220Z,97.04
2022-09-29T05:48:38.132Z,96.57
2022-09-29T05:51:11.249Z,95.13
2022-09-29T05:53:39.246Z,94.64
2022-09-29T05:56:08.666Z,95.40
2022-09-29T05:58:37.045Z,94.69
2022-09-29T06:01:19.136Z,94.40
2022-09-29T06:03:46.818Z,94.24
2022-09-29T06:06:13.945Z,94.67
2022-09-29T06:08:42.252Z,95.61
2022-09-29T06:11:14.398Z,97.04
2022-09-29T06:13:43.845Z,97.96
2022-09-29T06:16:12.379Z,97.36
2022-09-29T06:18:40.116Z,99.16
2022-09-29T06:21:08.881Z,99.36
2022-09-29T06:23:36.399Z,99.04
2022-09-29T06:26:04.947Z,97.40
2022-09-29T06:28:32.529Z,98.29
2022-09-29T06:31:04.644Z,97.80
2022-09-29T06:33:32.330Z,98.03
2022-09-29T06:36:19.048Z,99.11
2022-09-29T06:38:47.386Z,100.00
2022-09-29T06:41:14.528Z,100.00
2022-09-29T06:43:41.529Z,100.00
2022-09-29T06:46:08.604Z,100.00
2022-09-29T06:48:35.699Z,99.34
2022-09-29T06:51:09.107Z,100.00
2022-09-29T06:53:39.119Z,100.00
2022-09-29T06:56:07.501Z,99.40
2022-09-29T06:58:35.552Z,97.25
2022-09-29T07:01:05.970Z,98.67
2022-09-29T07:03:34.768Z,100.00
2022-09-29T07:06:20.310Z,98.77
2022-09-29T07:08:48.295Z,100.00
2022-09-29T07:11:16.540Z,100.00
2022-09-29T07:13:43.960Z,100.00
2022-09-29T07:16:13.567Z,100.00
2022-09-29T07:18:42.260Z,100.00
2022-09-29T07:21:12.325Z,100.00
2022-09-29T07:23:39.779Z,100.00
2022-09-29T07:26:07.296Z,100.00
2022-09-29T07:28:35.643Z,100.00
2022-09-29T07:31:17.866Z,100.00
2022-09-29T07:33:47.559Z,100.00
2022-09-29T07:36:16.793Z,100.00
2022-09-29T07:38:51.654Z,100.00
2022-09-29T07:41:21.966Z,100.00
2022-09-29T07:43:49.465Z,100.00
2022-09-29T07:46:17.181Z,100.00
2022-09-29T07:48:47.012Z,100.00
2022-09-29T07:51:17.685Z,100.00
2022-09-29T07:53:45.996Z,100.00
2022-09-29T07:56:17.572Z,100.00
2022-09-29T07:58:49.514Z,100.00
2022-09-29T08:01:18.794Z,100.00
2022-09-29T08:03:52.029Z,100.00
2022-09-29T08:06:20.326Z,100.00
2022-09-29T08:09:01.319Z,100.00
2022-09-29T08:11:32.785Z,100.00
2022-09-29T08:14:01.400Z,100.00
2022-09-29T08:16:30.220Z,100.00
2022-09-29T08:18:58.148Z,100.00
2022-09-29T08:21:26.388Z,100.00
2022-09-29T08:23:53.958Z,100.00
2022-09-29T08:26:33.949Z,100.00
2022-09-29T08:29:08.568Z,100.00
2022-09-29T08:31:38.467Z,100.00
2022-09-29T08:34:07.122Z,100.00
2022-09-29T08:36:34.435Z,100.00
2022-09-29T08:39:04.258Z,100.00
2022-09-29T08:42:13.322Z,100.00
2022-09-29T08:44:57.011Z,100.00
2022-09-29T08:47:46.539Z,100.00
2022-09-29T08:50:42.870Z,100.00
2022-09-29T08:53:26.598Z,100.00
2022-09-29T08:56:03.062Z,97.25
2022-09-29T08:58:32.774Z,93.66
2022-09-29T09:01:21.925Z,94.48
2022-09-29T09:04:35.873Z,91.63
2022-09-29T09:07:18.493Z,92.97
2022-09-29T09:09:56.618Z,98.32
2022-09-29T09:12:59.762Z,94.85
2022-09-29T09:15:53.245Z,94.15
2022-09-29T09:18:42.252Z,100.00
2022-09-29T09:21:18.057Z,100.00
2022-09-29T09:24:08.530Z,100.00
2022-09-29T09:26:40.475Z,95.49
2022-09-29T09:29:19.840Z,98.25
2022-09-29T09:31:52.537Z,97.46
2022-09-29T09:34:47.015Z,97.69
2022-09-29T09:37:39.815Z,95.06
2022-09-29T09:40:20.410Z,94.73
2022-09-29T09:43:04.515Z,90.05
2022-09-29T09:45:48.885Z,93.42
2022-09-29T09:48:42.114Z,90.56
2022-09-29T09:51:31.800Z,85.98
2022-09-29T09:54:05.065Z,87.00
2022-09-29T09:56:36.059Z,85.17
2022-09-29T09:59:32.720Z,82.91
2022-09-29T10:02:01.195Z,81.18
2022-09-29T10:04:28.676Z,79.57
2022-09-29T10:06:56.931Z,81.30
2022-09-29T10:09:24.350Z,78.58
2022-09-29T10:11:51.955Z,80.60
2022-09-29T10:14:28.020Z,80.54
2022-09-29T10:17:10.414Z,77.51
2022-09-29T10:19:55.036Z,72.02
2022-09-29T10:22:22.731Z,72.79
2022-09-29T10:24:55.474Z,70.14
2022-09-29T10:27:26.161Z,71.14
2022-09-29T10:29:54.783Z,69.42
2022-09-29T10:32:27.334Z,68.50
2022-09-29T10:35:16.323Z,72.31
2022-09-29T10:37:47.932Z,68.03
2022-09-29T10:40:20.862Z,70.28
2022-09-29T10:42:51.006Z,71.44
2022-09-29T10:45:26.211Z,72.85
2022-09-29T10:48:00.301Z,72.28
2022-09-29T10:50:36.801Z,73.96
2022-09-29T10:53:19.537Z,73.81
2022-09-29T10:55:51.913Z,77.25
2022-09-29T10:58:44.735Z,77.45
2022-09-29T11:01:20.995Z,75.29
2022-09-29T11:04:01.611Z,72.80
2022-09-29T11:06:31.759Z,72.70
2022-09-29T11:09:24.814Z,72.87
2022-09-29T11:12:00.972Z,73.92
2022-09-29T11:14:39.921Z,73.74
2022-09-29T11:17:37.852Z,73.16
2022-09-29T11:20:11.041Z,71.56
2022-09-29T11:23:22.937Z,70.67
2022-09-29T11:26:07.535Z,70.18
2022-09-29T11:28:56.110Z,69.69
2022-09-29T11:31:39.264Z,67.79
2022-09-29T11:35:05.889Z,66.21
2022-09-29T11:37:43.834Z,65.48
2022-09-29T11:40:12.823Z,66.25
2022-09-29T11:43:05.814Z,66.37
2022-09-29T11:45:45.298Z,64.71
2022-09-29T11:48:29.977Z,66.54
2022-09-29T11:51:19.800Z,65.24
2022-09-29T11:54:15.032Z,64.91
2022-09-29T11:57:22.921Z,64.60
2022-09-29T12:00:09.983Z,63.82
2022-09-29T12:02:50.767Z,64.39
2022-09-29T12:05:43.118Z,64.28
2022-09-29T12:08:28.075Z,64.12
2022-09-29T12:11:41.986Z,64.17
2022-09-29T12:14:15.759Z,64.13
2022-09-29T12:17:13.029Z,64.92
2022-09-29T12:19:43.355Z,62.90
2022-09-29T12:22:18.765Z,65.23
2022-09-29T12:24:51.564Z,64.37
2022-09-29T12:27:26.442Z,64.01
2022-09-29T12:29:58.602Z,63.85
2022-09-29T12:32:25.861Z,64.34
2022-09-29T12:35:15.698Z,65.69
2022-09-29T12:38:17.094Z,65.80
2022-09-29T12:40:51.291Z,65.54
2022-09-29T12:43:33.107Z,65.75
2022-09-29T12:46:09.853Z,65.51
2022-09-29T12:48:51.367Z,64.62
2022-09-29T12:51:42.545Z,64.95
2022-09-29T12:54:17.753Z,63.17
2022-09-29T12:57:10.086Z,64.77
2022-09-29T12:59:46.931Z,64.11
2022-09-29T13:02:23.510Z,63.95
2022-09-29T13:05:24.995Z,63.84
2022-09-29T13:07:55.342Z,64.23
2022-09-29T13:10:26.064Z,64.38
2022-09-29T13:13:34.615Z,64.86
2022-09-29T13:16:28.049Z,64.09
2022-09-29T13:19:34.110Z,65.94
2022-09-29T13:22:32.449Z,66.23
2022-09-29T13:25:21.842Z,65.77
2022-09-29T13:28:24.798Z,66.25
2022-09-29T13:31:02.604Z,65.94
2022-09-29T13:33:43.517Z,66.13
2022-09-29T13:36:39.326Z,66.67
2022-09-29T13:39:20.521Z,65.89
2022-09-29T13:41:56.705Z,66.35
2022-09-29T13:44:28.085Z,66.43
2022-09-29T13:47:36.530Z,66.45
2022-09-29T13:50:46.179Z,66.12
2022-09-29T13:53:23.391Z,65.82
2022-09-29T13:55:58.233Z,66.43
2022-09-29T13:58:39.544Z,67.38
2022-09-29T14:01:10.143Z,64.37
2022-09-29T14:03:40.361Z,63.91
2022-09-29T14:09:16.542Z,65.53
2022-09-29T14:11:51.951Z,65.19
2022-09-29T14:14:25.217Z,65.91
2022-09-29T14:17:02.167Z,65.56
2022-09-29T14:19:38.786Z,65.49
2022-09-29T14:22:38.512Z,66.12
2022-09-29T14:25:11.270Z,65.13
2022-09-29T14:28:10.335Z,66.65
2022-09-29T14:30:51.057Z,66.30
2022-09-29T14:33:30.382Z,65.99
2022-09-29T14:36:00.863Z,66.13
2022-09-29T14:38:37.324Z,66.95
2022-09-29T14:41:07.913Z,66.17
2022-09-29T14:43:43.477Z,67.54
2022-09-29T14:46:37.176Z,64.65
2022-09-29T14:49:49.725Z,63.24
2022-09-29T14:52:51.302Z,64.64
2022-09-29T14:55:38.255Z,64.81
2022-09-29T14:58:10.779Z,64.59
2022-09-29T15:01:09.572Z,63.91
2022-09-29T15:03:44.883Z,63.20
2022-09-29T15:06:24.716Z,64.28
2022-09-29T15:09:00.811Z,63.90
2022-09-29T15:11:29.264Z,64.69
2022-09-29T15:13:59.711Z,64.81
2022-09-29T15:16:30.109Z,65.57
2022-09-29T15:19:08.986Z,66.66
2022-09-29T15:21:43.517Z,65.28
2022-09-29T15:24:21.053Z,65.32
2022-09-29T15:26:53.814Z,65.22
2022-09-29T15:29:24.643Z,66.06
2022-09-29T15:31:54.039Z,65.54
2022-09-29T15:34:29.039Z,65.46
2022-09-29T15:36:58.505Z,67.55
2022-09-29T15:39:33.786Z,68.29
2022-09-29T15:42:14.829Z,71.42
2022-09-29T15:44:50.786Z,72.86
2022-09-29T15:47:22.587Z,74.15
2022-09-29T15:49:52.726Z,74.09
2022-09-29T15:52:23.313Z,72.90
2022-09-29T15:54:56.368Z,73.31
2022-09-29T15:57:50.265Z,72.32
2022-09-29T16:00:37.666Z,72.37
2022-09-29T16:03:27.300Z,72.40
2022-09-29T16:06:01.279Z,73.19
2022-09-29T16:08:31.405Z,73.23
2022-09-29T16:11:04.618Z,73.48
2022-09-29T16:13:40.850Z,73.05
2022-09-29T16:16:11.687Z,72.15
2022-09-29T16:18:44.753Z,71.55
2022-09-29T16:21:20.516Z,71.80
2022-09-29T16:24:02.278Z,71.79
2022-09-29T16:26:32.994Z,72.04
2022-09-29T16:29:09.094Z,70.83
2022-09-29T16:31:41.975Z,70.18
2022-09-29T16:34:21.408Z,70.91
2022-09-29T16:36:52.039Z,70.07
2022-09-29T16:39:22.882Z,70.16
2022-09-29T16:42:03.782Z,70.50
2022-09-29T16:44:43.604Z,71.15
2022-09-29T16:47:17.365Z,71.19
2022-09-29T16:49:48.558Z,71.17
2022-09-29T16:52:27.033Z,71.70
2022-09-29T16:55:17.851Z,70.95
2022-09-29T16:58:01.773Z,70.97
2022-09-29T17:01:19.577Z,70.59
2022-09-29T17:03:56.563Z,70.61
2022-09-29T17:06:24.362Z,69.53
2022-09-29T17:08:52.584Z,69.09
2022-09-29T17:12:35.315Z,69.87
2022-09-29T17:15:31.554Z,69.48
2022-09-29T17:18:31.298Z,68.82
2022-09-29T17:21:15.436Z,69.39
2022-09-29T17:23:47.053Z,69.27
2022-09-29T17:26:57.786Z,69.96
2022-09-29T17:29:29.816Z,69.74
2022-09-29T17:32:02.322Z,69.81
2022-09-29T17:34:30.077Z,71.05
2022-09-29T17:37:01.759Z,71.29
2022-09-29T17:39:29.744Z,71.11
2022-09-29T17:41:59.687Z,71.09
2022-09-29T17:44:27.906Z,70.08
2022-09-29T17:47:26.720Z,70.30
2022-09-29T17:49:54.127Z,70.86
2022-09-29T17:52:24.380Z,70.67
2022-09-29T17:54:51.786Z,70.70
2022-09-29T17:57:26.078Z,71.02
2022-09-29T17:59:54.970Z,70.56
2022-09-29T18:02:24.030Z,71.02
2022-09-29T18:04:51.410Z,71.48
2022-09-29T18:07:18.733Z,71.01
2022-09-29T18:09:48.190Z,71.76
2022-09-29T18:12:16.168Z,72.98
2022-09-29T18:14:43.405Z,73.26
2022-09-29T18:17:10.805Z,74.69
2022-09-29T18:19:40.047Z,72.75
2022-09-29T18:22:08.250Z,72.97
2022-09-29T18:24:35.465Z,74.06
2022-09-29T18:27:02.943Z,73.39
2022-09-29T18:29:32.234Z,74.05
2022-09-29T18:32:00.923Z,74.17
2022-09-29T18:34:31.099Z,75.26
2022-09-29T18:36:58.369Z,74.14
2022-09-29T18:39:25.709Z,74.17
2022-09-29T18:41:55.010Z,75.05
2022-09-29T18:44:24.628Z,75.63
2022-09-29T18:46:52.447Z,77.08
2022-09-29T18:49:20.136Z,77.82
2022-09-29T18:51:52.145Z,78.71
2022-09-29T18:54:19.721Z,81.25
2022-09-29T18:56:49.565Z,80.88
2022-09-29T18:59:20.201Z,80.49
2022-09-29T19:01:48.096Z,80.97
2022-09-29T19:04:41.647Z,81.44
2022-09-29T19:07:12.353Z,80.60
2022-09-29T19:09:40.128Z,79.73
2022-09-29T19:12:09.439Z,82.32
2022-09-29T19:14:37.701Z,82.76
2022-09-29T19:17:05.566Z,84.30
2022-09-29T19:19:33.437Z,83.42
2022-09-29T19:22:01.389Z,83.77
2022-09-29T19:24:29.114Z,83.46
2022-09-29T19:26:57.807Z,83.97
2022-09-29T19:29:25.491Z,84.89
2022-09-29T19:31:53.566Z,85.70
2022-09-29T19:34:21.557Z,85.97
2022-09-29T19:36:50.619Z,87.22
2022-09-29T19:39:18.548Z,86.64
2022-09-29T19:42:11.813Z,85.05
2022-09-29T19:44:40.332Z,86.67
2022-09-29T19:47:12.369Z,87.87
2022-09-29T19:49:41.011Z,89.63
2022-09-29T19:52:08.736Z,88.79
2022-09-29T19:54:39.110Z,88.03
2022-09-29T19:57:13.025Z,84.88
2022-09-29T19:59:41.774Z,85.15
2022-09-29T20:02:14.627Z,83.99
2022-09-29T20:04:43.496Z,84.04
2022-09-29T20:07:10.876Z,83.28
2022-09-29T20:09:38.691Z,82.17
2022-09-29T20:12:07.139Z,84.14
2022-09-29T20:14:38.043Z,83.52
2022-09-29T20:17:05.364Z,82.93
2022-09-29T20:19:58.498Z,83.11
2022-09-29T20:22:26.847Z,83.17
2022-09-29T20:24:56.039Z,81.99
2022-09-29T20:27:23.589Z,82.29
2022-09-29T20:29:51.611Z,82.63
2022-09-29T20:32:20.300Z,81.79
2022-09-29T20:34:47.840Z,81.77
2022-09-29T20:37:16.554Z,82.83
2022-09-29T20:39:44.149Z,82.78
2022-09-29T20:42:11.905Z,82.39
2022-09-29T20:44:39.358Z,83.48
2022-09-29T20:48:24.341Z,83.25
2022-09-29T20:50:51.968Z,83.20
2022-09-29T20:53:19.760Z,83.99
2022-09-29T20:55:47.545Z,85.55
2022-09-29T20:58:15.761Z,86.38
2022-09-29T21:00:43.160Z,85.61
2022-09-29T21:03:11.111Z,84.85
2022-09-29T21:05:39.101Z,85.31
2022-09-29T21:08:08.381Z,85.68
2022-09-29T21:10:35.846Z,86.11
2022-09-29T21:13:03.251Z,87.23
2022-09-29T21:15:30.919Z,89.16
2022-09-29T21:17:58.498Z,89.28
2022-09-29T21:20:25.739Z,88.06
2022-09-29T21:22:53.038Z,87.49
2022-09-29T21:25:20.907Z,85.84
2022-09-29T21:27:49.776Z,86.17
2022-09-29T21:30:17.113Z,85.55
2022-09-29T21:32:44.351Z,84.58
2022-09-29T21:35:11.706Z,85.18
2022-09-29T21:37:39.158Z,85.15
2022-09-29T21:40:07.363Z,85.37
2022-09-29T21:42:34.746Z,84.97
2022-09-29T21:45:02.489Z,84.83
2022-09-29T21:47:49.757Z,84.06
2022-09-29T21:50:18.621Z,84.09
2022-09-29T21:52:46.007Z,83.78
2022-09-29T21:55:13.320Z,83.59
2022-09-29T21:57:41.106Z,82.67
2022-09-29T22:00:08.874Z,82.63
2022-09-29T22:02:36.161Z,82.83
2022-09-29T22:05:03.746Z,84.75
2022-09-29T22:07:30.946Z,85.31
2022-09-29T22:09:58.221Z,86.05
2022-09-29T22:12:26.331Z,86.53
2022-09-29T22:14:53.591Z,87.27
2022-09-29T22:17:21.912Z,88.06
2022-09-29T22:19:49.241Z,87.63
2022-09-29T22:22:16.460Z,88.21
2022-09-29T22:24:43.926Z,88.51
2022-09-29T22:27:11.903Z,88.98
2022-09-29T22:29:39.250Z,88.71
2022-09-29T22:32:06.473Z,88.51
2022-09-29T22:34:34.189Z,88.49
2022-09-29T22:37:01.434Z,88.71
2022-09-29T22:39:28.726Z,89.13
2022-09-29T22:41:59.067Z,89.45
2022-09-29T22:44:26.345Z,90.36
2022-09-29T22:46:53.704Z,90.40
2022-09-29T22:49:21.814Z,90.97
2022-09-29T22:51:49.288Z,91.20
2022-09-29T22:54:16.780Z,91.14
2022-09-29T22:56:44.202Z,91.58
2022-09-29T22:59:13.169Z,91.45
2022-09-29T23:01:40.506Z,92.32
2022-09-29T23:04:07.839Z,91.98
2022-09-29T23:06:35.304Z,91.23
2022-09-29T23:09:02.654Z,91.04
2022-09-29T23:11:32.782Z,91.54
2022-09-29T23:14:00.775Z,92.65
2022-09-29T23:16:28.503Z,93.19
2022-09-29T23:18:58.431Z,94.07
2022-09-29T23:21:25.964Z,95.18
2022-09-29T23:23:56.028Z,95.32
2022-09-29T23:26:24.990Z,95.42
2022-09-29T23:28:52.969Z,96.01
2022-09-29T23:31:20.916Z,95.60
2022-09-29T23:33:59.652Z,94.43
2022-09-29T23:36:30.174Z,95.04
2022-09-29T23:39:10.349Z,95.48
2022-09-29T23:41:49.017Z,95.81
2022-09-29T23:44:22.858Z,96.07
2022-09-29T23:46:51.124Z,97.28
2022-09-29T23:49:22.418Z,96.50
2022-09-29T23:51:52.572Z,96.49
2022-09-29T23:54:22.531Z,96.58
2022-09-29T23:56:51.958Z,96.98
2022-09-29T23:59:19.951Z,96.50
